Time;durP1;ratioP1;P1;durP2;ratioP2;P2;SDS_P1;SDS_P2;PMS_P1;PMS_P2;Temp;Humidity;BMP_temperature;BMP_pressure;BME280_temperature;BME280_humidity;BME280_pressure;Samples;Min_cycle;Max_cycle;Signal;HPM_P1;HPM_P2
2024/02/09 00:00:54;;;;;;;8.02;2.35;;;23.50;43.80;;;;;;5075952;28;20287;-59
2024/02/09 00:03:21;;;;;;;4.97;2.25;;;23.50;43.80;;;;;;5075996;28;20187;-59
2024/02/09 00:05:50;;;;;;;4.68;2.30;;;23.50;43.80;;;;;;5075600;28;20301;-59
2024/02/09 00:08:18;;;;;;;6.63;2.70;;;23.50;43.80;;;;;;5075803;28;20186;-59
2024/02/09 00:10:47;;;;;;;6.90;2.65;;;23.40;43.70;;;;;;5075478;28;20662;-59
2024/02/09 00:13:14;;;;;;;5.85;2.10;;;23.50;43.80;;;;;;5075371;28;20269;-59
2024/02/09 00:15:43;;;;;;;6.72;2.28;;;23.50;43.80;;;;;;5075727;28;20257;-59
2024/02/09 00:18:10;;;;;;;5.32;2.10;;;23.50;43.90;;;;;;5075628;28;20252;-59
2024/02/09 00:20:37;;;;;;;7.00;2.40;;;23.50;43.90;;;;;;5075389;28;20215;-59
2024/02/09 00:23:04;;;;;;;6.25;2.08;;;23.40;43.80;;;;;;5075289;28;20671;-59
2024/02/09 00:25:31;;;;;;;7.63;2.10;;;23.40;43.80;;;;;;5075591;28;20237;-59
2024/02/09 00:28:00;;;;;;;7.22;2.30;;;23.50;43.90;;;;;;5074730;28;20233;-59
2024/02/09 00:30:27;;;;;;;5.05;2.20;;;23.50;44.60;;;;;;5075053;28;20234;-59
2024/02/09 00:32:54;;;;;;;5.80;1.88;;;23.50;43.80;;;;;;5075458;28;20187;-59
2024/02/09 00:35:23;;;;;;;5.47;2.40;;;23.50;43.90;;;;;;5075064;28;20225;-58
2024/02/09 00:37:55;;;;;;;4.63;1.80;;;23.50;43.80;;;;;;5075054;28;20194;-59
2024/02/09 00:40:23;;;;;;;4.50;1.67;;;23.50;43.80;;;;;;5075264;28;20218;-59
2024/02/09 00:42:51;;;;;;;5.38;1.92;;;23.50;43.80;;;;;;5074609;28;20202;-58
2024/02/09 00:45:20;;;;;;;5.97;1.98;;;23.50;43.80;;;;;;5074819;28;20218;-59
2024/02/09 00:47:47;;;;;;;5.60;2.15;;;23.50;43.70;;;;;;5074854;28;20195;-59
2024/02/09 00:50:17;;;;;;;5.50;1.77;;;23.50;43.70;;;;;;5074500;28;20219;-58
2024/02/09 00:52:48;;;;;;;5.03;2.00;;;23.50;43.70;;;;;;5075043;28;20191;-59
2024/02/09 00:55:15;;;;;;;4.38;2.05;;;23.50;43.70;;;;;;5074954;28;20587;-57
2024/02/09 00:57:42;;;;;;;4.88;2.05;;;23.50;43.80;;;;;;5074994;28;20210;-59
2024/02/09 01:00:10;;;;;;;4.45;1.70;;;23.50;43.70;;;;;;5074425;28;20219;-59
2024/02/09 01:02:39;;;;;;;6.50;2.00;;;23.50;43.80;;;;;;5074849;28;20216;-58
2024/02/09 01:05:15;;;;;;;4.03;1.75;;;23.50;43.80;;;;;;5074743;28;20684;-59
2024/02/09 01:07:42;;;;;;;5.93;1.65;;;23.50;43.80;;;;;;5074754;28;20385;-58
2024/02/09 01:10:09;;;;;;;3.70;1.55;;;23.50;43.80;;;;;;5074367;28;20305;-58
2024/02/09 02:45:49;;;;;;;3.97;1.55;;;23.40;43.60;;;;;;5072687;28;20571;-58
2024/02/09 03:04:42;;;;;;;4.88;1.75;;;23.50;43.60;;;;;;5072654;28;20210;-59
2024/02/09 03:07:09;;;;;;;4.40;1.60;;;23.40;43.50;;;;;;5072301;28;20187;-59
2024/02/09 03:09:36;;;;;;;5.03;1.50;;;23.40;43.50;;;;;;5072211;28;20301;-58
2024/02/09 03:12:05;;;;;;;7.57;1.80;;;23.40;43.50;;;;;;5072494;28;20586;-59
2024/02/09 03:14:32;;;;;;;4.60;1.40;;;23.50;43.50;;;;;;5072400;28;20305;-58
2024/02/09 03:16:59;;;;;;;5.25;1.17;;;23.40;43.50;;;;;;5072109;28;20274;-59
2024/02/09 03:19:26;;;;;;;5.60;1.60;;;23.40;43.40;;;;;;5071961;28;20700;-59
2024/02/09 03:21:53;;;;;;;4.85;1.45;;;23.40;43.40;;;;;;5072239;28;20191;-59
2024/02/09 03:24:20;;;;;;;4.35;1.65;;;23.40;43.40;;;;;;5071807;28;20258;-59
2024/02/09 03:26:47;;;;;;;3.85;1.20;;;23.40;43.40;;;;;;5072376;28;20278;-59
2024/02/09 03:29:15;;;;;;;3.53;1.20;;;23.40;43.40;;;;;;5071818;28;20231;-59
2024/02/09 03:31:43;;;;;;;6.38;1.70;;;23.40;43.30;;;;;;5071882;28;20230;-59
2024/02/09 03:34:10;;;;;;;4.40;1.25;;;23.40;43.40;;;;;;5071999;28;20696;-58
2024/02/09 03:36:37;;;;;;;5.80;1.73;;;23.50;43.40;;;;;;5072266;28;20278;-58
2024/02/09 03:39:05;;;;;;;3.95;1.08;;;23.40;43.30;;;;;;5071750;28;20187;-59
2024/02/09 03:41:32;;;;;;;4.60;1.48;;;23.40;43.30;;;;;;5071922;28;20199;-58
2024/02/09 03:44:03;;;;;;;4.80;1.55;;;23.40;43.30;;;;;;5072105;28;20189;-59
2024/02/09 03:46:32;;;;;;;5.10;1.50;;;23.40;43.30;;;;;;5071718;28;20191;-59
2024/02/09 03:48:59;;;;;;;4.03;1.38;;;23.50;43.30;;;;;;5071987;28;20187;-59
2024/02/09 03:51:26;;;;;;;4.60;1.10;;;23.50;43.30;;;;;;5071955;28;20221;-58
2024/02/09 03:53:53;;;;;;;3.92;1.45;;;23.50;43.20;;;;;;5071655;28;20193;-59
2024/02/09 03:56:20;;;;;;;5.07;1.55;;;23.50;43.20;;;;;;5072105;28;20230;-59
2024/02/09 03:58:47;;;;;;;3.83;1.50;;;23.50;43.20;;;;;;5071864;28;20210;-59
2024/02/09 04:01:14;;;;;;;3.25;1.30;;;23.50;43.20;;;;;;5071618;28;20195;-59
2024/02/09 04:03:41;;;;;;;4.63;1.50;;;23.50;43.20;;;;;;5072023;28;20278;-59
2024/02/09 04:06:08;;;;;;;6.32;1.58;;;23.50;43.20;;;;;;5072237;28;20227;-59
2024/02/09 04:08:35;;;;;;;3.75;1.30;;;23.50;43.20;;;;;;5071505;28;20187;-59
2024/02/09 04:11:02;;;;;;;8.82;1.75;;;23.50;43.20;;;;;;5071816;28;20779;-58
2024/02/09 04:13:29;;;;;;;4.70;1.42;;;23.50;43.20;;;;;;5071752;28;20285;-59
2024/02/09 04:15:57;;;;;;;5.82;1.33;;;23.50;43.20;;;;;;5071308;28;20304;-59
2024/02/09 04:18:25;;;;;;;5.82;1.63;;;23.40;43.10;;;;;;5071812;28;20282;-59
2024/02/09 04:20:54;;;;;;;4.75;1.50;;;23.50;43.20;;;;;;5071944;28;20261;-58
2024/02/09 04:23:21;;;;;;;5.43;1.30;;;23.50;43.20;;;;;;5071332;28;20193;-58
2024/02/09 04:25:48;;;;;;;5.95;1.35;;;23.50;43.90;;;;;;5071888;28;20218;-59
2024/02/09 04:28:17;;;;;;;4.72;1.30;;;23.40;43.20;;;;;;5071237;28;20929;-58
2024/02/09 04:30:46;;;;;;;3.80;1.42;;;23.50;43.20;;;;;;5071434;28;20215;-59
2024/02/09 04:33:15;;;;;;;4.70;1.40;;;23.40;43.20;;;;;;5071685;28;20239;-59
2024/02/09 04:35:42;;;;;;;4.55;1.67;;;23.40;43.20;;;;;;5072479;28;20226;-59
2024/02/09 04:38:12;;;;;;;4.85;1.40;;;23.40;43.20;;;;;;5074574;28;20668;-59
2024/02/09 04:40:39;;;;;;;4.45;1.30;;;23.40;43.20;;;;;;5075107;28;20704;-58
2024/02/09 04:43:06;;;;;;;3.28;1.25;;;23.40;43.20;;;;;;5075010;28;20696;-59
2024/02/09 04:45:33;;;;;;;3.55;1.40;;;23.40;43.20;;;;;;5074718;28;20218;-59
2024/02/09 04:48:00;;;;;;;3.55;1.20;;;23.40;43.20;;;;;;5075129;28;20189;-59
2024/02/09 04:50:27;;;;;;;3.55;1.15;;;23.40;43.20;;;;;;5075225;28;20306;-58
2024/02/09 04:52:54;;;;;;;3.20;1.20;;;23.40;43.20;;;;;;5074606;28;20587;-58
2024/02/09 04:55:24;;;;;;;5.13;1.50;;;23.40;43.10;;;;;;5074976;28;20618;-59
2024/02/09 04:57:50;;;;;;;4.63;1.08;;;23.40;43.10;;;;;;5074914;28;20274;-59
2024/02/09 05:00:19;;;;;;;5.68;1.33;;;23.40;43.10;;;;;;5074229;28;20763;-59
2024/02/09 05:02:46;;;;;;;4.63;1.70;;;23.40;43.10;;;;;;5074891;28;20195;-59
2024/02/09 05:05:13;;;;;;;8.05;1.60;;;23.40;43.10;;;;;;5074614;28;20696;-58
2024/02/09 05:07:40;;;;;;;3.05;1.23;;;23.40;43.10;;;;;;5074400;28;20286;-59
2024/02/09 05:10:07;;;;;;;4.57;1.10;;;23.40;43.10;;;;;;5074771;28;20211;-59
2024/02/09 05:12:35;;;;;;;3.63;1.20;;;23.40;43.10;;;;;;5074665;28;20215;-58
2024/02/09 05:15:02;;;;;;;2.85;1.27;;;23.40;43.10;;;;;;5073926;28;20463;-59
2024/02/09 05:17:29;;;;;;;4.35;1.10;;;23.40;43.10;;;;;;5074641;28;20290;-59
2024/02/09 05:19:59;;;;;;;4.25;1.27;;;23.40;43.10;;;;;;5074160;28;20722;-59
2024/02/09 05:22:27;;;;;;;3.17;1.20;;;23.50;43.20;;;;;;5074169;28;20729;-59
2024/02/09 05:24:54;;;;;;;3.63;1.17;;;23.40;43.10;;;;;;5074330;28;20218;-58
2024/02/09 05:27:21;;;;;;;5.15;1.30;;;23.50;43.10;;;;;;5074102;28;20209;-58
2024/02/09 05:29:50;;;;;;;3.80;1.30;;;23.50;43.10;;;;;;5073867;28;20219;-59
2024/02/09 05:32:16;;;;;;;4.57;1.30;;;23.40;43.00;;;;;;5074574;28;20233;-59
2024/02/09 05:34:45;;;;;;;4.80;1.05;;;23.50;43.10;;;;;;5074243;28;20309;-58
2024/02/09 05:37:15;;;;;;;4.05;1.20;;;23.50;43.00;;;;;;5073897;28;20248;-58
2024/02/09 05:39:43;;;;;;;2.47;1.00;;;23.50;43.00;;;;;;5074072;28;20225;-59
2024/02/09 05:42:10;;;;;;;3.95;1.10;;;23.50;43.00;;;;;;5074182;28;20214;-59
2024/02/09 05:44:37;;;;;;;3.35;1.27;;;23.50;43.00;;;;;;5073333;28;20230;-59
2024/02/09 05:47:05;;;;;;;3.50;1.42;;;23.40;42.90;;;;;;5074025;28;20285;-59
2024/02/09 05:49:32;;;;;;;4.03;1.20;;;23.40;42.90;;;;;;5073857;28;20302;-59
2024/02/09 05:51:59;;;;;;;3.90;1.23;;;23.40;42.90;;;;;;5073183;28;20225;-59
2024/02/09 05:54:26;;;;;;;3.72;1.40;;;23.40;42.90;;;;;;5073882;28;20218;-59
2024/02/09 05:56:53;;;;;;;3.60;1.25;;;23.40;43.00;;;;;;5073845;28;20274;-59
2024/02/09 05:59:21;;;;;;;5.20;1.38;;;23.40;42.90;;;;;;5072897;28;20687;-59
2024/02/09 06:01:48;;;;;;;5.43;1.58;;;23.40;42.90;;;;;;5073796;28;20222;-58
2024/02/09 06:04:16;;;;;;;3.88;1.30;;;23.40;43.00;;;;;;5073700;28;20306;-59
2024/02/09 06:06:43;;;;;;;2.72;1.15;;;23.40;42.90;;;;;;5073290;28;20273;-59
2024/02/09 06:09:10;;;;;;;3.95;1.33;;;23.40;43.00;;;;;;5073549;28;20191;-59
2024/02/09 06:11:37;;;;;;;3.55;1.20;;;23.40;42.90;;;;;;5073452;28;20190;-59
2024/02/09 06:14:04;;;;;;;2.97;1.15;;;23.40;42.90;;;;;;5072838;28;20213;-59
2024/02/09 06:16:31;;;;;;;6.25;1.17;;;23.40;42.90;;;;;;5073447;28;20278;-58
2024/02/09 06:18:58;;;;;;;4.75;1.02;;;23.40;42.90;;;;;;5073298;28;20193;-59
2024/02/09 06:21:26;;;;;;;4.05;1.30;;;23.40;42.90;;;;;;5072975;28;20203;-59
2024/02/09 06:23:53;;;;;;;3.90;1.27;;;23.40;42.90;;;;;;5073334;28;20279;-59
2024/02/09 06:26:23;;;;;;;4.43;1.30;;;23.40;42.80;;;;;;5073289;28;20311;-59
2024/02/09 06:28:50;;;;;;;3.45;0.98;;;23.40;42.90;;;;;;5072399;28;20226;-59
2024/02/09 06:31:18;;;;;;;5.35;1.23;;;23.40;42.90;;;;;;5072910;28;20305;-59
2024/02/09 06:33:49;;;;;;;7.38;1.33;;;23.40;42.90;;;;;;5072801;28;20210;-59
2024/02/09 06:36:16;;;;;;;3.42;1.23;;;23.40;42.90;;;;;;5072728;28;20264;-59
2024/02/09 06:38:44;;;;;;;4.53;1.70;;;23.40;42.80;;;;;;5072690;28;20187;-59
2024/02/09 06:41:12;;;;;;;3.50;1.00;;;23.40;42.80;;;;;;5072975;28;20302;-59
2024/02/09 06:43:39;;;;;;;4.00;1.70;;;23.40;42.90;;;;;;5072522;28;20282;-59
2024/02/09 06:46:06;;;;;;;1.80;1.00;;;23.40;42.80;;;;;;5072502;28;20221;-59
2024/02/09 06:48:33;;;;;;;3.08;1.10;;;23.40;42.80;;;;;;5072537;28;20709;-59
2024/02/09 06:51:00;;;;;;;4.47;1.40;;;23.50;42.90;;;;;;5072306;28;20214;-59
2024/02/09 06:53:27;;;;;;;4.82;1.40;;;23.40;42.90;;;;;;5072726;28;20218;-59
2024/02/09 06:55:55;;;;;;;2.50;0.90;;;23.50;42.90;;;;;;5072776;28;20309;-59
2024/02/09 06:58:23;;;;;;;3.03;0.90;;;23.50;42.80;;;;;;5071808;28;20283;-59
2024/02/09 07:00:52;;;;;;;3.55;1.05;;;23.50;42.80;;;;;;5072499;28;20211;-59
2024/02/09 07:03:21;;;;;;;2.83;1.42;;;23.50;42.70;;;;;;5072317;28;20190;-59
2024/02/09 07:05:51;;;;;;;2.65;1.17;;;23.50;42.70;;;;;;5072318;28;20210;-59
2024/02/09 07:08:19;;;;;;;3.42;1.05;;;23.50;42.70;;;;;;5072248;28;20187;-59
2024/02/09 07:10:45;;;;;;;3.90;1.10;;;23.50;42.70;;;;;;5072621;28;20260;-58
2024/02/09 07:13:16;;;;;;;3.15;1.20;;;23.50;42.70;;;;;;5072107;28;20272;-58
2024/02/09 07:15:43;;;;;;;2.78;1.20;;;23.50;42.70;;;;;;5072469;28;20218;-59
2024/02/09 07:18:11;;;;;;;3.90;1.33;;;23.50;42.70;;;;;;5072464;28;20262;-56
2024/02/09 07:20:39;;;;;;;4.75;1.30;;;23.50;42.70;;;;;;5072058;28;20301;-56
2024/02/09 07:23:06;;;;;;;5.65;1.63;;;23.50;42.70;;;;;;5080994;28;20686;-55
2024/02/09 07:25:34;;;;;;;3.78;1.55;;;23.40;42.70;;;;;;5088417;28;20279;-55
2024/02/09 07:28:00;;;;;;;3.03;1.00;;;23.40;42.70;;;;;;5088455;28;20218;-56
2024/02/09 07:30:29;;;;;;;2.17;0.93;;;23.50;42.80;;;;;;5089237;28;20594;-56
2024/02/09 07:32:59;;;;;;;1.73;0.93;;;23.40;42.70;;;;;;5088129;28;20210;-55
2024/02/09 07:35:26;;;;;;;4.22;1.30;;;23.40;42.80;;;;;;5068027;28;20271;-56
2024/02/09 07:37:53;;;;;;;4.75;1.55;;;23.40;42.70;;;;;;5112264;28;20722;-57
2024/02/09 07:40:20;;;;;;;4.07;1.30;;;23.40;42.80;;;;;;5103144;28;20210;-56
2024/02/09 07:42:47;;;;;;;3.65;1.20;;;23.40;42.80;;;;;;5084790;28;20214;-57
2024/02/09 07:45:15;;;;;;;4.50;1.30;;;23.40;42.80;;;;;;5089168;28;20241;-56
2024/02/09 07:47:44;;;;;;;4.25;1.48;;;23.40;42.90;;;;;;5092189;28;20202;-56
2024/02/09 07:50:12;;;;;;;4.70;1.45;;;23.40;42.90;;;;;;5091759;28;20223;-57
2024/02/09 07:52:39;;;;;;;5.03;1.30;;;23.40;42.80;;;;;;5090881;28;20694;-57
2024/02/09 07:55:07;;;;;;;5.05;1.63;;;23.40;42.90;;;;;;5077569;28;20222;-56
2024/02/09 07:57:34;;;;;;;4.88;1.38;;;23.40;42.90;;;;;;5067558;28;20370;-55
2024/02/09 08:00:01;;;;;;;6.25;1.30;;;23.40;42.90;;;;;;5078634;28;20246;-56
2024/02/09 08:02:28;;;;;;;4.60;1.27;;;23.30;42.90;;;;;;5071426;28;20275;-57
2024/02/09 08:04:57;;;;;;;3.83;1.27;;;23.30;42.90;;;;;;5081215;28;20214;-56
2024/02/09 08:07:23;;;;;;;4.38;1.23;;;23.30;42.90;;;;;;5087231;28;20194;-55
2024/02/09 08:09:50;;;;;;;5.40;1.35;;;23.30;42.90;;;;;;5085206;28;20318;-55
2024/02/09 08:12:17;;;;;;;4.68;1.40;;;23.30;42.90;;;;;;5092621;28;20285;-56
2024/02/09 08:14:45;;;;;;;4.95;1.63;;;23.40;43.10;;;;;;5095358;28;20301;-56
2024/02/09 08:17:12;;;;;;;3.30;1.20;;;23.40;43.00;;;;;;5092986;28;20289;-56
2024/02/09 08:19:38;;;;;;;3.83;1.20;;;23.40;42.90;;;;;;5094993;28;20301;-56
2024/02/09 08:22:07;;;;;;;5.45;1.20;;;23.40;42.80;;;;;;5094833;28;20192;-57
2024/02/09 08:24:33;;;;;;;9.13;1.63;;;23.40;42.70;;;;;;5095400;28;20305;-56
2024/02/09 08:27:00;;;;;;;5.82;1.50;;;23.50;42.80;;;;;;5094465;28;20243;-53
2024/02/09 08:29:27;;;;;;;4.80;1.30;;;23.50;42.70;;;;;;5094447;28;20269;-55
2024/02/09 08:31:54;;;;;;;7.85;1.45;;;23.50;42.70;;;;;;5095409;28;20225;-57
2024/02/09 08:34:21;;;;;;;5.35;1.55;;;23.50;42.80;;;;;;5094317;28;20310;-55
2024/02/09 08:36:49;;;;;;;2.60;1.08;;;23.40;42.70;;;;;;5094371;28;20273;-56
2024/02/09 08:39:17;;;;;;;5.43;1.30;;;23.40;42.80;;;;;;5094386;28;20193;-56
2024/02/09 08:41:44;;;;;;;6.30;1.55;;;23.40;42.80;;;;;;5094186;28;20285;-57
2024/02/09 08:44:11;;;;;;;5.38;1.27;;;23.40;42.80;;;;;;5093013;28;20740;-57
2024/02/09 08:46:38;;;;;;;5.03;1.42;;;23.40;42.80;;;;;;5094768;28;20285;-56
2024/02/09 08:49:05;;;;;;;7.68;1.55;;;23.40;42.80;;;;;;5090448;28;20189;-55
2024/02/09 08:51:31;;;;;;;6.60;1.50;;;23.40;42.90;;;;;;5092703;28;20221;-54
2024/02/09 08:53:59;;;;;;;5.90;1.45;;;23.40;42.90;;;;;;5094186;28;20213;-55
2024/02/09 08:56:27;;;;;;;4.75;1.52;;;23.40;42.90;;;;;;5094263;28;20304;-57
2024/02/09 08:58:54;;;;;;;6.50;1.70;;;23.40;42.90;;;;;;5094107;28;20281;-56
2024/02/09 09:01:21;;;;;;;8.90;2.10;;;23.40;42.90;;;;;;5094338;28;20308;-56
2024/02/09 09:03:48;;;;;;;3.63;1.33;;;23.40;42.90;;;;;;5093194;28;20743;-57
2024/02/09 09:06:15;;;;;;;7.90;1.42;;;23.40;42.90;;;;;;5094351;28;20301;-56
2024/02/09 09:08:42;;;;;;;5.78;1.92;;;23.40;42.90;;;;;;5093516;28;20302;-57
2024/02/09 09:11:12;;;;;;;5.32;1.75;;;23.40;42.90;;;;;;5093808;28;20213;-57
2024/02/09 09:13:41;;;;;;;5.38;1.40;;;23.40;42.90;;;;;;5091320;28;20214;-53
2024/02/09 09:16:08;;;;;;;4.22;1.58;;;23.40;42.90;;;;;;5093997;28;20214;-57
2024/02/09 09:18:35;;;;;;;5.70;1.58;;;23.40;42.90;;;;;;5093264;28;20201;-57
2024/02/09 09:21:04;;;;;;;5.13;1.27;;;23.40;42.90;;;;;;5092210;28;20271;-54
2024/02/09 09:23:31;;;;;;;6.22;1.65;;;23.40;42.90;;;;;;5092467;28;20247;-58
2024/02/09 09:25:58;;;;;;;7.50;1.67;;;23.40;42.90;;;;;;5093392;28;20408;-54
2024/02/09 09:28:25;;;;;;;6.05;1.50;;;23.40;42.90;;;;;;5092645;28;20312;-57
2024/02/09 09:30:53;;;;;;;5.65;1.45;;;23.40;43.00;;;;;;5094059;28;20329;-56
2024/02/09 09:33:20;;;;;;;6.35;1.45;;;23.40;43.10;;;;;;5093381;28;20249;-57
2024/02/09 09:35:46;;;;;;;5.65;1.48;;;23.40;43.10;;;;;;5092541;28;20665;-55
2024/02/09 09:38:13;;;;;;;5.90;1.50;;;23.40;43.10;;;;;;5083978;28;20596;-55
2024/02/09 09:40:41;;;;;;;7.53;1.65;;;23.40;43.10;;;;;;5083947;28;20217;-54
2024/02/09 09:43:09;;;;;;;10.07;1.77;;;23.40;43.20;;;;;;5088798;28;20233;-58
2024/02/09 09:45:36;;;;;;;7.25;1.77;;;23.40;43.30;;;;;;5090841;28;20225;-55
2024/02/09 09:48:07;;;;;;;9.02;1.85;;;23.40;43.30;;;;;;5083274;28;20279;-57
2024/02/09 09:50:35;;;;;;;7.45;2.00;;;23.40;43.30;;;;;;5076319;28;20333;-58
2024/02/09 09:53:03;;;;;;;10.25;1.77;;;23.40;44.00;;;;;;5087706;28;20210;-56
2024/02/09 09:55:34;;;;;;;9.10;1.75;;;23.40;43.30;;;;;;5085008;28;20229;-55
2024/02/09 09:58:00;;;;;;;8.85;1.83;;;23.40;43.40;;;;;;5090383;28;20206;-58
2024/02/09 10:00:28;;;;;;;8.57;1.80;;;23.40;43.50;;;;;;5090908;28;20440;-55
2024/02/09 10:02:55;;;;;;;5.88;1.38;;;23.40;43.50;;;;;;5086657;28;20216;-50
2024/02/09 10:05:23;;;;;;;5.90;1.75;;;23.40;43.50;;;;;;5082530;28;20214;-47
2024/02/09 10:07:50;;;;;;;6.15;1.75;;;23.40;43.50;;;;;;5092274;28;20190;-55
2024/02/09 10:10:20;;;;;;;7.00;1.63;;;23.40;43.60;;;;;;5090546;28;20222;-53
2024/02/09 10:12:47;;;;;;;9.60;1.77;;;23.40;43.70;;;;;;5091454;28;20626;-55
2024/02/09 10:15:16;;;;;;;6.50;1.67;;;23.40;43.70;;;;;;5091514;28;20300;-51
2024/02/09 10:17:43;;;;;;;6.07;1.65;;;23.40;43.80;;;;;;5091695;28;20652;-55
2024/02/09 10:20:12;;;;;;;5.65;1.63;;;23.40;43.70;;;;;;5097531;28;20213;-52
2024/02/09 10:22:40;;;;;;;4.15;1.80;;;23.40;43.80;;;;;;5099177;28;20316;-53
2024/02/09 10:25:08;;;;;;;7.78;2.35;;;23.40;43.80;;;;;;5088125;28;20296;-64
2024/02/09 10:27:36;;;;;;;8.25;1.75;;;23.40;43.80;;;;;;5086827;28;20209;-57
2024/02/09 10:30:03;;;;;;;4.40;1.48;;;23.40;43.80;;;;;;5089127;28;20305;-58
2024/02/09 10:32:32;;;;;;;7.55;1.50;;;23.40;43.80;;;;;;5089914;28;20672;-59
2024/02/09 10:34:59;;;;;;;7.60;1.60;;;23.40;43.80;;;;;;5084590;28;20721;-59
2024/02/09 10:37:26;;;;;;;4.43;1.42;;;23.40;43.90;;;;;;5090715;28;20275;-57
2024/02/09 10:39:55;;;;;;;6.15;1.30;;;23.40;43.90;;;;;;5089990;28;20218;-58
2024/02/09 10:42:23;;;;;;;6.70;1.55;;;23.40;44.00;;;;;;5090030;28;20640;-59
2024/02/09 10:44:52;;;;;;;8.75;1.67;;;23.40;44.00;;;;;;5088582;28;20195;-59
2024/02/09 10:47:25;;;;;;;10.50;2.40;;;23.40;44.00;;;;;;5090034;28;20200;-58
2024/02/09 10:49:54;;;;;;;7.63;1.40;;;23.40;44.00;;;;;;5090927;28;20277;-59
2024/02/09 10:52:24;;;;;;;5.25;1.55;;;23.50;44.00;;;;;;5090616;28;20673;-58
2024/02/09 10:54:51;;;;;;;7.55;2.10;;;23.50;44.00;;;;;;5089737;28;20305;-58
2024/02/09 10:57:21;;;;;;;6.55;1.77;;;23.40;44.00;;;;;;5086285;28;20277;-60
2024/02/09 10:59:49;;;;;;;6.00;1.80;;;23.40;44.00;;;;;;5090882;28;20277;-59
2024/02/09 11:02:17;;;;;;;6.10;1.55;;;23.50;44.00;;;;;;5091464;28;20214;-58
2024/02/09 11:04:44;;;;;;;5.38;1.90;;;23.40;43.90;;;;;;5091410;28;20659;-59
2024/02/09 11:07:15;;;;;;;7.95;2.05;;;23.50;44.00;;;;;;5091733;28;20186;-58
2024/02/09 11:09:44;;;;;;;6.50;1.63;;;23.40;44.50;;;;;;5088863;28;20190;-58
2024/02/09 11:12:12;;;;;;;7.88;1.77;;;23.50;44.00;;;;;;5075385;28;20199;-59
2024/02/09 11:14:44;;;;;;;7.07;1.77;;;23.50;44.00;;;;;;5071237;28;20609;-59
2024/02/09 11:17:13;;;;;;;6.82;2.00;;;23.50;44.00;;;;;;5082756;28;20212;-58
2024/02/09 11:19:41;;;;;;;6.65;1.80;;;23.50;43.90;;;;;;5091548;28;20278;-59
2024/02/09 11:22:09;;;;;;;8.25;1.90;;;23.50;43.90;;;;;;5091586;28;20265;-59
2024/02/09 11:24:36;;;;;;;10.00;2.20;;;23.40;43.80;;;;;;5090963;28;20302;-59
2024/02/09 11:27:04;;;;;;;7.53;1.52;;;23.40;43.80;;;;;;5091113;28;20217;-59
2024/02/09 11:29:34;;;;;;;7.38;2.17;;;23.40;43.80;;;;;;5084559;28;20390;-59
2024/02/09 11:32:05;;;;;;;14.20;2.30;;;23.40;43.80;;;;;;5090807;28;20272;-58
2024/02/09 11:34:35;;;;;;;6.55;1.75;;;23.40;43.70;;;;;;5089558;28;20224;-59
2024/02/09 11:37:02;;;;;;;6.10;2.10;;;23.40;43.80;;;;;;5089915;28;20210;-59
2024/02/09 11:39:29;;;;;;;10.82;2.30;;;23.40;43.70;;;;;;5089781;28;20247;-58
2024/02/09 11:41:56;;;;;;;9.10;2.00;;;23.40;43.70;;;;;;5088634;28;20301;-58
2024/02/09 11:44:23;;;;;;;6.45;1.70;;;23.40;43.70;;;;;;5091674;28;20363;-59
2024/02/09 11:46:52;;;;;;;8.98;2.55;;;23.40;43.70;;;;;;5095560;28;20308;-58
2024/02/09 11:49:21;;;;;;;6.20;1.85;;;23.40;43.70;;;;;;5095412;28;20585;-59
2024/02/09 11:51:48;;;;;;;8.23;2.17;;;23.40;43.70;;;;;;5095471;28;20710;-59
2024/02/09 11:54:16;;;;;;;6.13;1.92;;;23.40;43.70;;;;;;5095194;28;20782;-59
2024/02/09 11:56:45;;;;;;;7.78;2.40;;;23.40;43.70;;;;;;5095560;28;20236;-59
2024/02/09 11:59:12;;;;;;;7.80;1.92;;;23.30;43.60;;;;;;5095407;28;20280;-59
2024/02/09 12:01:42;;;;;;;7.13;1.63;;;23.30;43.60;;;;;;5094891;28;20304;-59
2024/02/09 12:04:09;;;;;;;6.90;1.98;;;23.30;43.60;;;;;;5095442;28;20643;-60
2024/02/09 12:06:38;;;;;;;7.32;2.17;;;23.30;43.60;;;;;;5095364;28;20214;-60
2024/02/09 12:09:06;;;;;;;8.68;1.95;;;23.30;43.60;;;;;;5095104;28;20219;-60
2024/02/09 12:11:33;;;;;;;7.38;1.90;;;23.30;43.60;;;;;;5094991;28;20222;-57
2024/02/09 12:14:00;;;;;;;5.38;1.73;;;23.30;43.60;;;;;;5094841;28;20762;-60
2024/02/09 12:16:28;;;;;;;7.30;1.95;;;23.30;43.60;;;;;;5095308;28;20218;-58
2024/02/09 12:18:56;;;;;;;6.93;2.00;;;23.30;43.70;;;;;;5095475;28;20604;-59
2024/02/09 12:21:23;;;;;;;7.10;1.77;;;23.30;43.60;;;;;;5089034;28;20210;-60
2024/02/09 12:23:53;;;;;;;5.85;2.00;;;23.40;43.70;;;;;;5078045;28;20198;-60
2024/02/09 12:26:20;;;;;;;7.70;1.80;;;23.30;43.50;;;;;;5075546;28;20703;-59
2024/02/09 12:28:47;;;;;;;7.32;2.25;;;23.40;44.30;;;;;;5080147;28;20305;-60
2024/02/09 12:31:16;;;;;;;8.43;2.05;;;23.40;43.70;;;;;;5093913;28;20304;-61
2024/02/09 12:33:43;;;;;;;6.57;1.95;;;23.40;43.70;;;;;;5103659;28;20220;-60
2024/02/09 12:36:11;;;;;;;8.25;2.22;;;23.40;43.70;;;;;;5114569;27;20589;-61
2024/02/09 12:38:40;;;;;;;10.20;2.03;;;23.40;43.70;;;;;;5113507;28;20654;-60
2024/02/09 12:41:09;;;;;;;8.07;1.98;;;23.40;43.80;;;;;;5107323;28;20292;-59
2024/02/09 12:43:36;;;;;;;8.27;2.00;;;23.40;43.80;;;;;;5094727;28;20216;-60
2024/02/09 12:46:06;;;;;;;7.32;2.58;;;23.40;43.90;;;;;;5093051;28;20218;-61
2024/02/09 12:48:36;;;;;;;6.53;1.83;;;23.40;43.90;;;;;;5094254;28;20291;-61
2024/02/09 12:51:06;;;;;;;9.75;2.00;;;23.40;44.00;;;;;;5084550;28;20778;-61
2024/02/09 12:53:34;;;;;;;12.27;1.90;;;23.40;44.00;;;;;;5074432;28;20290;-61
2024/02/09 12:56:02;;;;;;;9.38;2.13;;;23.50;44.10;;;;;;5074746;28;20227;-61
2024/02/09 12:58:31;;;;;;;6.63;1.65;;;23.50;44.20;;;;;;5094183;28;20190;-60
2024/02/09 13:00:58;;;;;;;8.80;2.00;;;23.50;44.30;;;;;;5093147;28;20300;-59
2024/02/09 13:03:26;;;;;;;9.43;1.70;;;23.50;44.30;;;;;;5078846;28;20193;-67
2024/02/09 13:05:53;;;;;;;7.63;1.98;;;23.50;44.30;;;;;;5092343;28;20232;-66
2024/02/09 13:08:22;;;;;;;8.20;2.10;;;23.50;44.30;;;;;;5092893;28;20208;-67
2024/02/09 13:10:50;;;;;;;6.70;1.80;;;23.50;44.20;;;;;;5092949;28;20257;-66
2024/02/09 13:13:18;;;;;;;9.50;2.10;;;23.50;44.10;;;;;;5093544;28;20735;-60
2024/02/09 13:15:46;;;;;;;9.05;2.00;;;23.50;44.00;;;;;;5092904;28;20241;-60
2024/02/09 13:18:13;;;;;;;6.55;2.03;;;23.50;43.90;;;;;;5092850;28;20261;-59
2024/02/09 13:20:42;;;;;;;9.77;2.08;;;23.60;44.00;;;;;;5080442;28;20317;-60
2024/02/09 13:23:09;;;;;;;8.07;1.83;;;23.50;43.90;;;;;;5092884;28;20224;-60
2024/02/09 13:25:40;;;;;;;8.23;1.95;;;23.60;43.90;;;;;;5092532;28;20249;-61
2024/02/09 13:28:07;;;;;;;6.25;1.80;;;23.50;43.80;;;;;;5093273;28;20236;-66
2024/02/09 13:30:35;;;;;;;8.23;2.40;;;23.50;43.80;;;;;;5092619;28;20309;-58
2024/02/09 13:33:05;;;;;;;6.50;1.85;;;23.60;43.80;;;;;;5092977;28;20186;-68
2024/02/09 13:35:32;;;;;;;9.00;2.13;;;23.50;43.70;;;;;;5092533;28;20267;-60
2024/02/09 13:37:59;;;;;;;8.15;1.40;;;23.60;43.80;;;;;;5092687;28;20219;-62
2024/02/09 13:40:26;;;;;;;6.85;1.48;;;23.50;43.70;;;;;;5092546;28;20284;-55
2024/02/09 13:42:53;;;;;;;5.28;2.00;;;23.60;43.70;;;;;;5092998;28;20476;-61
2024/02/09 13:45:23;;;;;;;5.80;1.60;;;23.60;43.70;;;;;;5092206;28;20685;-60
2024/02/09 13:47:51;;;;;;;5.50;1.85;;;23.50;43.60;;;;;;5091103;28;20233;-60
2024/02/09 13:50:23;;;;;;;6.15;1.85;;;23.60;43.60;;;;;;5093045;28;20198;-59
2024/02/09 13:52:52;;;;;;;6.43;1.75;;;23.60;43.70;;;;;;5092730;28;20214;-59
2024/02/09 13:55:21;;;;;;;6.95;1.88;;;23.60;43.70;;;;;;5092253;28;20226;-61
2024/02/09 13:57:50;;;;;;;5.35;1.88;;;23.60;43.60;;;;;;5093194;28;20214;-60
2024/02/09 14:00:18;;;;;;;7.75;1.90;;;23.60;43.60;;;;;;5089070;28;20209;-61
2024/02/09 14:02:45;;;;;;;10.45;1.80;;;23.50;43.50;;;;;;5092683;28;20214;-61
2024/02/09 14:05:12;;;;;;;4.63;1.40;;;23.60;43.70;;;;;;5092893;28;20717;-61
2024/02/09 14:07:42;;;;;;;8.30;2.13;;;23.50;43.50;;;;;;5092177;28;20222;-60
2024/02/09 14:10:10;;;;;;;8.77;2.05;;;23.50;43.50;;;;;;5092479;28;20202;-61
2024/02/09 14:12:37;;;;;;;5.68;1.58;;;23.50;43.50;;;;;;5092719;28;20305;-60
2024/02/09 14:15:04;;;;;;;7.80;1.90;;;23.50;43.60;;;;;;5091897;28;20216;-61
2024/02/09 14:17:32;;;;;;;8.85;2.40;;;23.50;43.60;;;;;;5092455;28;20741;-59
2024/02/09 14:19:59;;;;;;;8.15;2.10;;;23.50;43.60;;;;;;5092382;28;20194;-62
2024/02/09 14:22:25;;;;;;;5.55;1.67;;;23.40;43.50;;;;;;5092017;28;20249;-61
2024/02/09 14:24:56;;;;;;;4.28;1.60;;;23.40;43.50;;;;;;5092498;28;20269;-60
2024/02/09 14:27:25;;;;;;;4.32;1.48;;;23.50;43.60;;;;;;5092613;28;20221;-61
2024/02/09 14:29:53;;;;;;;5.15;1.70;;;23.40;43.50;;;;;;5092331;28;20186;-60
2024/02/09 14:32:20;;;;;;;4.85;1.50;;;23.40;43.50;;;;;;5092289;28;20765;-61
2024/02/09 14:34:47;;;;;;;6.93;1.60;;;23.40;43.60;;;;;;5091973;28;20683;-60
2024/02/09 14:37:13;;;;;;;5.75;1.88;;;23.40;43.60;;;;;;5092282;28;20305;-61